createdAt,value
2018-08-09T00:01:10.732Z,6.50
2018-08-09T00:03:41.114Z,6.65
2018-08-09T00:06:11.524Z,8.08
2018-08-09T00:08:42.274Z,8.15
2018-08-09T00:11:12.744Z,8.03
2018-08-09T00:13:43.090Z,7.62
2018-08-09T00:16:13.556Z,7.30
2018-08-09T00:18:44.024Z,7.53
2018-08-09T00:21:14.400Z,6.87
2018-08-09T00:23:44.852Z,7.72
2018-08-09T00:26:15.392Z,7.87
2018-08-09T00:28:45.840Z,7.28
2018-08-09T00:31:16.374Z,7.55
2018-08-09T00:33:47.010Z,7.40
2018-08-09T00:36:17.372Z,7.28
2018-08-09T00:38:47.762Z,7.85
2018-08-09T00:41:18.162Z,7.58
2018-08-09T00:54:36.409Z,7.40
2018-08-09T00:57:07.268Z,7.25
2018-08-09T00:59:37.904Z,7.22
2018-08-09T01:02:08.696Z,6.53
2018-08-09T01:04:39.458Z,6.90
2018-08-09T01:07:10.336Z,7.55
2018-08-09T01:09:40.745Z,6.62
2018-08-09T01:12:11.219Z,5.92
2018-08-09T01:14:41.711Z,6.22
2018-08-09T01:17:12.180Z,6.37
2018-08-09T01:23:18.942Z,6.12
2018-08-09T01:25:49.368Z,6.03
2018-08-09T01:28:19.799Z,6.33
2018-08-09T01:30:50.240Z,6.28
2018-08-09T01:33:20.625Z,6.00
2018-08-09T01:35:51.187Z,6.42
2018-08-09T01:38:21.625Z,6.05
2018-08-09T01:40:52.205Z,6.17
2018-08-09T01:43:39.258Z,6.67
2018-08-09T01:46:09.682Z,6.40
2018-08-09T01:48:40.198Z,6.75
2018-08-09T01:51:10.648Z,5.78
2018-08-09T01:53:41.053Z,6.42
2018-08-09T01:56:11.410Z,6.85
2018-08-09T01:58:41.968Z,6.53
2018-08-09T02:01:12.436Z,6.67
2018-08-09T02:03:43.169Z,6.60
2018-08-09T02:06:14.806Z,6.55
2018-08-09T02:08:46.041Z,6.60
2018-08-09T02:11:16.516Z,6.28
2018-08-09T02:13:46.967Z,6.15
2018-08-09T02:16:17.376Z,5.92
2018-08-09T02:18:47.734Z,6.28
2018-08-09T02:21:18.163Z,5.87
2018-08-09T02:23:48.674Z,6.22
2018-08-09T02:26:19.087Z,6.50
2018-08-09T02:28:50.033Z,6.20
2018-08-09T02:31:20.845Z,6.65
2018-08-09T02:33:51.220Z,6.03
2018-08-09T02:36:21.851Z,6.45
2018-08-09T02:38:52.259Z,6.53
2018-08-09T02:41:22.683Z,6.40
2018-08-09T02:43:53.733Z,6.50
2018-08-09T02:46:24.923Z,6.45
2018-08-09T02:49:39.733Z,6.22
2018-08-09T02:52:10.279Z,6.20
2018-08-09T02:54:41.409Z,5.90
2018-08-09T02:57:11.789Z,5.30
2018-08-09T02:59:42.193Z,5.25
2018-08-09T03:05:48.853Z,5.33
2018-08-09T03:08:19.283Z,5.83
2018-08-09T03:10:49.639Z,5.62
2018-08-09T03:13:20.053Z,5.62
2018-08-09T03:15:50.519Z,6.00
2018-08-09T03:18:21.083Z,5.80
2018-08-09T03:20:51.872Z,6.00
2018-08-09T03:23:22.347Z,6.15
2018-08-09T03:25:53.054Z,5.90
2018-08-09T03:28:23.482Z,5.58
2018-08-09T03:30:54.059Z,5.58
2018-08-09T03:33:24.417Z,6.10
2018-08-09T03:35:54.826Z,6.28
2018-08-09T03:38:25.260Z,5.50
2018-08-09T03:40:55.757Z,5.60
2018-08-09T03:43:26.248Z,6.10
2018-08-09T03:45:56.766Z,6.00
2018-08-09T03:48:27.196Z,6.17
2018-08-09T03:50:57.698Z,6.20
2018-08-09T03:53:28.071Z,6.62
2018-08-09T03:55:58.646Z,6.97
2018-08-09T03:58:29.083Z,6.58
2018-08-09T04:00:59.489Z,6.45
2018-08-09T04:03:30.021Z,6.50
2018-08-09T04:06:00.429Z,6.10
2018-08-09T04:08:31.033Z,6.37
2018-08-09T04:11:01.411Z,6.40
2018-08-09T04:13:31.815Z,6.30
2018-08-09T04:16:02.259Z,5.95
2018-08-09T04:18:32.670Z,6.20
2018-08-09T04:21:03.654Z,6.67
2018-08-09T04:23:34.419Z,6.67
2018-08-09T04:26:04.915Z,6.10
2018-08-09T04:28:35.323Z,6.22
2018-08-09T04:31:05.809Z,6.37
2018-08-09T04:37:13.011Z,6.30
2018-08-09T04:39:45.033Z,6.03
2018-08-09T04:42:15.493Z,6.08
2018-08-09T04:44:46.037Z,5.97
2018-08-09T04:47:16.476Z,6.42
2018-08-09T04:49:47.095Z,5.72
2018-08-09T04:52:17.840Z,5.83
2018-08-09T04:54:48.258Z,5.83
2018-08-09T04:57:18.640Z,5.97
2018-08-09T04:59:49.079Z,5.90
2018-08-09T05:05:56.018Z,5.95
2018-08-09T05:08:26.465Z,6.15
2018-08-09T05:10:56.819Z,6.25
2018-08-09T05:13:27.137Z,5.85
2018-08-09T05:15:57.813Z,5.80
2018-08-09T05:18:28.466Z,5.47
2018-08-09T05:20:59.244Z,6.92
2018-08-09T05:23:29.568Z,6.15
2018-08-09T05:25:59.898Z,6.28
2018-08-09T05:28:30.225Z,6.00
2018-08-09T05:31:00.557Z,6.22
2018-08-09T05:33:31.401Z,5.62
2018-08-09T05:36:02.124Z,5.33
2018-08-09T05:38:32.540Z,5.72
2018-08-09T05:41:03.458Z,5.83
2018-08-09T05:43:33.801Z,5.45
2018-08-09T05:46:04.248Z,6.15
2018-08-09T05:48:34.722Z,5.72
2018-08-09T05:51:05.206Z,5.83
2018-08-09T05:53:35.542Z,5.47
2018-08-09T05:56:06.271Z,5.58
2018-08-09T05:58:36.752Z,5.53
2018-08-09T06:01:07.573Z,5.65
2018-08-09T06:03:38.294Z,5.83
2018-08-09T06:06:12.666Z,5.50
2018-08-09T06:08:43.178Z,5.65
2018-08-09T06:11:14.023Z,6.70
2018-08-09T06:14:38.027Z,7.28
2018-08-09T06:17:08.818Z,6.85
2018-08-09T06:19:39.702Z,7.40
2018-08-09T06:22:11.029Z,7.67
2018-08-09T06:24:42.004Z,8.13
2018-08-09T06:27:13.828Z,8.78
2018-08-09T06:29:44.466Z,8.95
2018-08-09T06:32:15.155Z,8.33
2018-08-09T06:34:45.795Z,8.40
2018-08-09T06:37:17.027Z,8.63
2018-08-09T06:39:48.337Z,7.53
2018-08-09T06:42:19.631Z,8.15
2018-08-09T06:44:50.519Z,8.03
2018-08-09T06:47:21.119Z,8.78
2018-08-09T06:49:51.704Z,7.85
2018-08-09T06:52:23.051Z,8.15
2018-08-09T06:54:53.585Z,8.33
2018-08-09T06:57:24.513Z,8.03
2018-08-09T06:59:55.185Z,7.72
2018-08-09T07:02:25.681Z,8.90
2018-08-09T07:04:56.191Z,8.68
2018-08-09T07:07:26.687Z,9.13
2018-08-09T07:09:57.253Z,8.08
2018-08-09T07:12:28.225Z,9.03
2018-08-09T07:14:59.104Z,9.70
2018-08-09T07:17:29.553Z,9.25
2018-08-09T07:20:00.186Z,10.00
2018-08-09T07:22:30.639Z,8.48
2018-08-09T07:25:01.189Z,8.70
2018-08-09T07:27:31.622Z,8.70
2018-08-09T07:30:02.110Z,8.48
2018-08-09T07:32:32.639Z,8.55
2018-08-09T07:35:03.207Z,9.10
2018-08-09T07:37:33.928Z,9.08
2018-08-09T07:40:05.967Z,9.20
2018-08-09T07:42:36.670Z,9.00
2018-08-09T07:45:11.278Z,10.18
2018-08-09T07:47:42.069Z,9.65
2018-08-09T07:50:13.075Z,10.53
2018-08-09T07:52:43.910Z,10.08
2018-08-09T07:55:14.418Z,10.15
2018-08-09T07:57:45.238Z,9.40
2018-08-09T08:00:15.765Z,9.73
2018-08-09T08:02:46.498Z,9.63
2018-08-09T08:05:16.993Z,9.40
2018-08-09T08:07:48.002Z,9.03
2018-08-09T08:10:19.113Z,9.58
2018-08-09T08:12:49.646Z,8.70
2018-08-09T08:15:21.540Z,8.98
2018-08-09T08:17:52.064Z,8.23
2018-08-09T08:20:22.882Z,7.92
2018-08-09T08:22:54.078Z,8.40
2018-08-09T08:25:24.901Z,7.65
2018-08-09T08:27:55.368Z,6.55
2018-08-09T08:30:25.904Z,7.03
2018-08-09T08:32:56.394Z,7.75
2018-08-09T08:49:49.625Z,7.30
2018-08-09T08:52:20.120Z,6.90
2018-08-09T08:54:50.581Z,6.80
2018-08-09T08:57:21.123Z,6.95
2018-08-09T08:59:51.929Z,7.37
2018-08-09T09:05:58.836Z,5.75
2018-08-09T09:08:29.347Z,7.75
2018-08-09T09:10:59.892Z,7.30
2018-08-09T09:13:30.576Z,6.70
2018-08-09T09:16:01.073Z,7.10
2018-08-09T09:18:31.907Z,7.22
2018-08-09T09:21:02.529Z,6.83
2018-08-09T09:23:33.065Z,6.92
2018-08-09T09:26:03.697Z,7.40
2018-08-09T09:28:35.129Z,7.20
2018-08-09T09:31:05.847Z,7.42
2018-08-09T09:33:36.351Z,6.97
2018-08-09T09:36:07.199Z,7.00
2018-08-09T09:38:38.551Z,6.65
2018-08-09T09:41:09.137Z,6.37
2018-08-09T09:43:40.603Z,6.05
2018-08-09T09:46:11.171Z,5.87
2018-08-09T09:48:41.788Z,6.90
2018-08-09T09:51:12.438Z,5.83
2018-08-09T09:53:43.597Z,6.30
2018-08-09T09:56:16.336Z,6.85
2018-08-09T09:58:46.979Z,6.35
2018-08-09T10:01:22.903Z,5.78
2018-08-09T10:03:53.629Z,6.15
2018-08-09T10:06:24.375Z,6.25
2018-08-09T10:08:55.149Z,5.60
2018-08-09T10:11:25.518Z,5.30
2018-08-09T10:13:55.949Z,6.00
2018-08-09T10:16:26.133Z,6.00
2018-08-09T10:26:41.694Z,5.67
2018-08-09T10:29:11.935Z,5.63
2018-08-09T10:31:43.137Z,5.50
2018-08-09T10:34:13.364Z,5.60
2018-08-09T10:36:43.695Z,5.57
2018-08-09T10:42:50.156Z,5.90
2018-08-09T10:45:20.294Z,5.47
2018-08-09T10:47:50.461Z,6.27
2018-08-09T10:50:20.681Z,6.50
2018-08-09T10:52:50.876Z,6.27
2018-08-09T10:55:21.173Z,6.97
2018-08-09T10:57:51.420Z,6.13
2018-08-09T11:00:21.958Z,6.07
2018-08-09T11:02:52.246Z,6.10
2018-08-09T11:05:22.616Z,5.90
2018-08-09T11:07:53.832Z,6.30
2018-08-09T11:10:23.936Z,5.23
2018-08-09T11:12:54.444Z,6.03
2018-08-09T11:15:24.640Z,5.67
2018-08-09T11:17:54.779Z,6.20
2018-08-09T11:20:25.156Z,5.53
2018-08-09T11:22:55.415Z,5.50
2018-08-09T11:25:25.597Z,5.80
2018-08-09T11:27:56.423Z,5.90
2018-08-09T11:30:27.290Z,6.07
2018-08-09T11:32:57.570Z,5.87
2018-08-09T11:35:28.100Z,5.70
2018-08-09T11:37:58.413Z,5.67
2018-08-09T11:40:28.698Z,5.60
2018-08-09T11:42:58.836Z,5.53
2018-08-09T11:45:29.157Z,5.53
2018-08-09T11:47:59.369Z,5.03
2018-08-09T11:50:29.636Z,5.57
2018-08-09T11:52:59.711Z,4.90
2018-08-09T11:55:29.921Z,5.60
2018-08-09T11:58:00.124Z,5.17
2018-08-09T12:00:30.560Z,5.10
2018-08-09T12:03:00.962Z,5.03
2018-08-09T12:05:31.178Z,5.40
2018-08-09T12:08:01.415Z,5.90
2018-08-09T12:10:31.566Z,5.87
2018-08-09T12:13:01.776Z,5.60
2018-08-09T12:19:07.850Z,5.20
2018-08-09T12:21:38.384Z,4.90
2018-08-09T12:24:08.675Z,5.37
2018-08-09T12:26:39.325Z,5.40
2018-08-09T12:29:09.548Z,5.27
2018-08-09T12:31:40.332Z,5.33
2018-08-09T12:34:10.630Z,5.53
2018-08-09T12:36:40.955Z,5.00
2018-08-09T12:39:13.124Z,4.73
2018-08-09T12:45:19.527Z,5.20
2018-08-09T12:47:49.904Z,5.10
2018-08-09T12:50:20.146Z,4.20
2018-08-09T12:52:50.289Z,5.00
2018-08-09T12:55:20.563Z,3.90
2018-08-09T12:57:50.751Z,3.53
2018-08-09T13:00:21.067Z,3.80
2018-08-09T13:02:51.340Z,3.43
2018-08-09T13:05:21.864Z,3.93
2018-08-09T13:07:52.078Z,3.47
2018-08-09T13:10:22.284Z,3.70
2018-08-09T13:12:52.738Z,3.50
2018-08-09T13:15:23.004Z,3.40
2018-08-09T13:17:53.238Z,3.53
2018-08-09T13:20:24.122Z,3.40
2018-08-09T13:22:54.216Z,3.73
2018-08-09T13:25:24.331Z,3.87
2018-08-09T13:27:54.448Z,3.50
2018-08-09T13:30:25.178Z,4.33
2018-08-09T13:32:55.450Z,3.97
2018-08-09T13:35:25.599Z,4.00
2018-08-09T13:37:55.917Z,4.37
2018-08-09T13:40:26.367Z,4.60
2018-08-09T13:42:56.681Z,4.77
2018-08-09T13:49:02.918Z,5.00
2018-08-09T13:51:33.849Z,4.80
2018-08-09T13:54:04.538Z,4.97
2018-08-09T13:56:35.122Z,4.80
2018-08-09T13:59:20.518Z,4.33
2018-08-09T14:01:54.085Z,4.80
2018-08-09T14:04:28.503Z,4.60
2018-08-09T14:07:13.137Z,4.87
2018-08-09T14:09:48.168Z,4.37
2018-08-09T14:12:26.466Z,5.03
2018-08-09T14:15:44.933Z,4.10
2018-08-09T14:18:15.547Z,4.37
2018-08-09T14:20:48.431Z,4.60
2018-08-09T14:23:24.265Z,4.07
2018-08-09T14:26:03.050Z,4.23
2018-08-09T14:28:33.481Z,4.07
2018-08-09T14:31:04.067Z,4.23
2018-08-09T14:33:34.833Z,4.40
2018-08-09T14:36:06.740Z,3.80
2018-08-09T14:38:37.917Z,3.77
2018-08-09T14:41:10.275Z,3.97
2018-08-09T14:43:48.312Z,4.20
2018-08-09T14:46:19.923Z,3.93
2018-08-09T14:56:07.140Z,4.33
2018-08-09T14:58:42.066Z,3.77
2018-08-09T15:01:12.623Z,4.17
2018-08-09T15:03:45.331Z,4.50
2018-08-09T15:06:17.089Z,4.03
2018-08-09T15:13:59.219Z,4.35
2018-08-09T15:16:30.623Z,3.95
2018-08-09T15:19:04.970Z,4.00
2018-08-09T15:21:35.599Z,4.67
2018-08-09T15:28:07.644Z,5.08
2018-08-09T15:30:39.445Z,5.70
2018-08-09T15:33:10.499Z,6.72
2018-08-09T15:35:41.389Z,6.20
2018-08-09T15:38:11.993Z,6.28
2018-08-09T15:41:39.111Z,6.70
2018-08-09T15:44:10.054Z,7.33
2018-08-09T15:46:40.839Z,7.08
2018-08-09T15:49:11.683Z,5.72
2018-08-09T15:51:42.313Z,5.62
2018-08-09T15:54:12.922Z,5.97
2018-08-09T15:56:44.111Z,5.25
2018-08-09T15:59:15.126Z,5.75
2018-08-09T16:01:45.766Z,6.17
2018-08-09T16:04:16.310Z,5.70
2018-08-09T16:14:00.396Z,5.15
2018-08-09T16:16:30.953Z,4.85
2018-08-09T16:19:01.666Z,4.87
2018-08-09T16:21:32.222Z,5.22
2018-08-09T16:24:02.760Z,5.42
2018-08-09T16:26:34.326Z,4.95
2018-08-09T16:29:06.016Z,4.47
2018-08-09T16:31:36.558Z,4.62
2018-08-09T16:34:07.116Z,4.60
2018-08-09T16:36:37.674Z,4.83
2018-08-09T16:39:12.888Z,4.87
2018-08-09T16:41:43.803Z,5.17
2018-08-09T16:44:16.295Z,4.47
2018-08-09T16:46:46.847Z,5.25
2018-08-09T16:49:17.601Z,4.40
2018-08-09T16:51:48.222Z,4.58
2018-08-09T16:54:19.057Z,4.62
2018-08-09T16:56:49.774Z,4.05
2018-08-09T16:59:20.233Z,3.75
2018-08-09T17:01:50.700Z,2.95
2018-08-09T17:04:21.832Z,3.25
2018-08-09T17:06:52.657Z,3.25
2018-08-09T17:09:23.203Z,4.10
2018-08-09T17:11:54.265Z,4.10
2018-08-09T17:14:24.728Z,3.65
2018-08-09T17:16:55.575Z,3.70
2018-08-09T17:19:25.947Z,3.50
2018-08-09T17:21:56.800Z,4.00
2018-08-09T17:24:27.362Z,3.70
2018-08-09T17:26:58.216Z,4.40
2018-08-09T17:29:28.816Z,4.03
2018-08-09T17:31:59.910Z,3.90
2018-08-09T17:34:30.795Z,3.87
2018-08-09T17:37:01.368Z,3.62
2018-08-09T17:39:31.816Z,3.30
2018-08-09T17:42:02.181Z,3.85
2018-08-09T17:44:32.740Z,3.60
2018-08-09T17:47:03.403Z,3.40
2018-08-09T17:49:33.984Z,3.58
2018-08-09T17:52:04.552Z,3.70
2018-08-09T17:54:35.425Z,3.42
2018-08-09T17:57:06.296Z,3.58
2018-08-09T17:59:37.162Z,3.75
2018-08-09T18:02:09.020Z,3.30
2018-08-09T18:04:42.701Z,3.00
2018-08-09T18:07:14.080Z,3.40
2018-08-09T18:09:46.128Z,3.10
2018-08-09T18:12:17.957Z,3.37
2018-08-09T18:14:49.806Z,3.30
2018-08-09T18:17:21.796Z,3.50
2018-08-09T18:19:57.672Z,3.25
2018-08-09T18:26:06.888Z,3.00
2018-08-09T18:28:38.128Z,3.47
2018-08-09T18:31:08.952Z,3.60
2018-08-09T18:33:40.418Z,3.27
2018-08-09T18:36:11.210Z,3.15
2018-08-09T18:38:45.031Z,3.20
2018-08-09T18:41:18.642Z,3.35
2018-08-09T18:43:54.806Z,3.12
2018-08-09T18:46:25.614Z,3.35
2018-08-09T18:48:56.206Z,2.90
2018-08-09T18:51:26.690Z,3.08
2018-08-09T18:53:57.176Z,3.00
2018-08-09T18:56:27.908Z,3.10
2018-08-09T18:58:58.684Z,3.27
2018-08-09T19:01:29.624Z,2.67
2018-08-09T19:04:02.470Z,2.77
2018-08-09T19:06:32.989Z,3.05
2018-08-09T19:09:03.681Z,2.80
2018-08-09T19:11:34.230Z,3.20
2018-08-09T19:14:05.210Z,2.85
2018-08-09T19:16:35.678Z,2.98
2018-08-09T19:19:06.100Z,2.90
2018-08-09T19:21:36.904Z,3.12
2018-08-09T19:24:07.332Z,2.90
2018-08-09T19:26:38.104Z,3.12
2018-08-09T19:29:08.562Z,2.65
2018-08-09T19:31:39.468Z,2.72
2018-08-09T19:34:09.941Z,2.80
2018-08-09T19:36:40.706Z,9.13
2018-08-09T19:39:12.462Z,2.80
2018-08-09T19:41:43.876Z,2.95
2018-08-09T19:45:43.948Z,2.80
2018-08-09T19:48:18.042Z,2.90
2018-08-09T19:50:48.519Z,2.90
2018-08-09T19:53:19.261Z,2.65
2018-08-09T19:55:50.703Z,3.37
2018-08-09T19:58:21.150Z,3.50
2018-08-09T20:00:51.957Z,3.37
2018-08-09T20:03:22.662Z,3.30
2018-08-09T20:05:53.075Z,3.12
2018-08-09T20:08:24.033Z,3.30
2018-08-09T20:10:54.944Z,3.25
2018-08-09T20:13:25.279Z,3.60
2018-08-09T20:15:56.279Z,3.45
2018-08-09T20:18:26.738Z,3.12
2018-08-09T20:20:57.455Z,3.00
2018-08-09T20:23:27.964Z,3.33
2018-08-09T20:26:00.616Z,3.90
2018-08-09T20:28:31.673Z,3.10
2018-08-09T20:31:02.969Z,3.12
2018-08-09T20:33:33.506Z,3.20
2018-08-09T20:39:40.464Z,3.02
2018-08-09T20:42:11.075Z,4.58
2018-08-09T20:44:41.631Z,3.30
2018-08-09T20:47:12.348Z,3.70
2018-08-09T20:49:43.163Z,3.50
2018-08-09T20:52:13.676Z,3.80
2018-08-09T20:54:44.197Z,3.83
2018-08-09T20:57:14.689Z,3.80
2018-08-09T20:59:45.228Z,3.67
2018-08-09T21:05:52.263Z,3.60
2018-08-09T21:08:22.726Z,3.98
2018-08-09T21:10:53.769Z,3.60
2018-08-09T21:13:24.272Z,4.00
2018-08-09T21:15:55.495Z,4.22
2018-08-09T21:18:26.053Z,3.75
2018-08-09T21:20:56.572Z,4.05
2018-08-09T21:23:26.963Z,4.10
2018-08-09T21:25:57.671Z,4.00
2018-08-09T21:28:28.335Z,3.75
2018-08-09T21:30:58.885Z,4.05
2018-08-09T21:33:29.329Z,4.05
2018-08-09T21:36:00.765Z,4.05
2018-08-09T21:38:31.283Z,4.08
2018-08-09T21:41:02.079Z,3.98
2018-08-09T21:47:09.263Z,4.05
2018-08-09T21:49:39.675Z,3.65
2018-08-09T21:52:10.785Z,3.62
2018-08-09T21:54:41.533Z,3.95
2018-08-09T21:57:12.043Z,3.80
2018-08-09T21:59:42.620Z,4.10
2018-08-09T22:02:13.325Z,4.30
2018-08-09T22:04:49.283Z,3.50
2018-08-09T22:07:24.896Z,4.10
2018-08-09T22:10:00.831Z,4.10
2018-08-09T22:14:42.958Z,3.87
2018-08-09T22:17:18.556Z,4.30
2018-08-09T22:19:53.969Z,4.47
2018-08-09T22:22:24.613Z,4.30
2018-08-09T22:24:55.257Z,4.60
2018-08-09T22:27:25.925Z,4.22
2018-08-09T22:29:56.444Z,4.47
2018-08-09T22:32:26.937Z,4.50
2018-08-09T22:34:57.841Z,4.17
2018-08-09T22:37:27.911Z,4.08
2018-08-09T22:39:58.101Z,4.27
2018-08-09T22:42:28.595Z,4.00
2018-08-09T22:44:59.457Z,3.80
2018-08-09T22:47:29.827Z,4.12
2018-08-09T22:53:36.313Z,3.60
2018-08-09T22:56:06.931Z,3.40
2018-08-09T22:58:37.749Z,3.60
2018-08-09T23:01:09.345Z,3.98
2018-08-09T23:03:39.809Z,3.40
2018-08-09T23:06:10.725Z,3.30
2018-08-09T23:08:41.649Z,3.67
2018-08-09T23:11:12.187Z,3.95
2018-08-09T23:13:42.757Z,3.62
2018-08-09T23:16:13.631Z,3.70
2018-08-09T23:18:44.480Z,3.52
2018-08-09T23:21:14.943Z,3.67
2018-08-09T23:23:46.184Z,3.37
2018-08-09T23:26:16.894Z,3.37
2018-08-09T23:28:47.276Z,3.12
2018-08-09T23:31:18.034Z,2.80
2018-08-09T23:33:48.792Z,2.50
2018-08-09T23:36:19.196Z,2.22
2018-08-09T23:39:33.489Z,2.30
2018-08-09T23:42:04.068Z,2.58
2018-08-09T23:44:34.876Z,2.10
2018-08-09T23:47:04.816Z,2.33
2018-08-09T23:49:34.854Z,2.37
2018-08-09T23:52:05.167Z,2.60
2018-08-09T23:54:35.194Z,2.53
2018-08-09T23:57:05.114Z,2.80
2018-08-09T23:59:34.930Z,2.73
